sensor_id;sensor_type;location;lat;lon;timestamp;pressure;altitude;pressure_sealevel;temperature;humidity
61119;BME280;51448;51.660;5.824;2022-12-24T00:01:31;100489.53;;;10.31;100.00
61119;BME280;51448;51.660;5.824;2022-12-24T00:03:59;100480.78;;;10.29;100.00
61119;BME280;51448;51.660;5.824;2022-12-24T00:06:27;100492.28;;;10.26;100.00
61119;BME280;51448;51.660;5.824;2022-12-24T00:08:54;100496.75;;;10.23;100.00
61119;BME280;51448;51.660;5.824;2022-12-24T00:11:22;100501.22;;;10.21;100.00
61119;BME280;51448;51.660;5.824;2022-12-24T00:13:49;100511.78;;;10.19;100.00
61119;BME280;51448;51.660;5.824;2022-12-24T00:16:16;100509.25;;;10.16;100.00
61119;BME280;51448;51.660;5.824;2022-12-24T00:18:44;100508.44;;;10.14;100.00
61119;BME280;51448;51.660;5.824;2022-12-24T00:21:14;100513.72;;;10.13;100.00
61119;BME280;51448;51.660;5.824;2022-12-24T00:23:42;100517.28;;;10.12;100.00
61119;BME280;51448;51.660;5.824;2022-12-24T00:26:11;100523.44;;;10.11;100.00
61119;BME280;51448;51.660;5.824;2022-12-24T00:28:39;100527.88;;;10.08;100.00
61119;BME280;51448;51.660;5.824;2022-12-24T00:31:13;100526.97;;;10.10;100.00
61119;BME280;51448;51.660;5.824;2022-12-24T00:33:46;100532.22;;;10.10;100.00
61119;BME280;51448;51.660;5.824;2022-12-24T00:36:15;100534.91;;;10.08;100.00
61119;BME280;51448;51.660;5.824;2022-12-24T00:38:43;100533.94;;;10.11;100.00
61119;BME280;51448;51.660;5.824;2022-12-24T00:41:12;100534.00;;;10.09;100.00
61119;BME280;51448;51.660;5.824;2022-12-24T00:43:57;100544.53;;;10.09;100.00
61119;BME280;51448;51.660;5.824;2022-12-24T00:46:28;100546.25;;;10.08;100.00
61119;BME280;51448;51.660;5.824;2022-12-24T00:48:58;100549.81;;;10.07;100.00
61119;BME280;51448;51.660;5.824;2022-12-24T00:51:26;100559.41;;;10.08;100.00
61119;BME280;51448;51.660;5.824;2022-12-24T00:53:54;100562.91;;;10.09;100.00
61119;BME280;51448;51.660;5.824;2022-12-24T00:56:21;100569.03;;;10.10;100.00
61119;BME280;51448;51.660;5.824;2022-12-24T00:58:50;100567.25;;;10.10;100.00
61119;BME280;51448;51.660;5.824;2022-12-24T01:01:17;100569.88;;;10.10;100.00
61119;BME280;51448;51.660;5.824;2022-12-24T01:03:46;100565.47;;;10.11;100.00
61119;BME280;51448;51.660;5.824;2022-12-24T01:06:17;100569.88;;;10.10;100.00
61119;BME280;51448;51.660;5.824;2022-12-24T01:08:49;100579.53;;;10.10;100.00
61119;BME280;51448;51.660;5.824;2022-12-24T01:11:18;100581.34;;;10.07;100.00
61119;BME280;51448;51.660;5.824;2022-12-24T01:13:45;100589.22;;;10.07;100.00
61119;BME280;51448;51.660;5.824;2022-12-24T01:16:19;100589.22;;;10.07;100.00
61119;BME280;51448;51.660;5.824;2022-12-24T01:18:47;100590.94;;;10.08;100.00
61119;BME280;51448;51.660;5.824;2022-12-24T01:21:15;100590.09;;;10.08;100.00
61119;BME280;51448;51.660;5.824;2022-12-24T01:23:43;100588.31;;;10.08;100.00
61119;BME280;51448;51.660;5.824;2022-12-24T01:26:10;100597.97;;;10.08;100.00
61119;BME280;51448;51.660;5.824;2022-12-24T01:28:39;100604.06;;;10.08;100.00
61119;BME280;51448;51.660;5.824;2022-12-24T01:31:15;100598.78;;;10.10;100.00
61119;BME280;51448;51.660;5.824;2022-12-24T01:33:45;100605.81;;;10.10;100.00
61119;BME280;51448;51.660;5.824;2022-12-24T01:36:16;100617.19;;;10.10;100.00
61119;BME280;51448;51.660;5.824;2022-12-24T01:38:43;100604.84;;;10.12;100.00
61119;BME280;51448;51.660;5.824;2022-12-24T01:41:14;100607.44;;;10.14;100.00
61119;BME280;51448;51.660;5.824;2022-12-24T01:47:21;100623.28;;;10.11;100.00
61119;BME280;51448;51.660;5.824;2022-12-24T01:49:59;100624.16;;;10.11;100.00
61119;BME280;51448;51.660;5.824;2022-12-24T01:52:34;100625.03;;;10.12;100.00
61119;BME280;51448;51.660;5.824;2022-12-24T01:55:09;100633.78;;;10.11;100.00
61119;BME280;51448;51.660;5.824;2022-12-24T01:57:46;100632.91;;;10.12;100.00
61119;BME280;51448;51.660;5.824;2022-12-24T02:00:18;100625.97;;;10.09;100.00
61119;BME280;51448;51.660;5.824;2022-12-24T02:02:47;100639.16;;;10.07;100.00
61119;BME280;51448;51.660;5.824;2022-12-24T02:05:37;100644.44;;;10.06;100.00
61119;BME280;51448;51.660;5.824;2022-12-24T02:08:07;100645.44;;;10.02;100.00
61119;BME280;51448;51.660;5.824;2022-12-24T02:10:35;100652.50;;;10.00;100.00
61119;BME280;51448;51.660;5.824;2022-12-24T02:13:04;100656.97;;;9.96;100.00
61119;BME280;51448;51.660;5.824;2022-12-24T02:15:58;100665.00;;;9.92;100.00
61119;BME280;51448;51.660;5.824;2022-12-24T02:18:43;100666.09;;;9.84;100.00
61119;BME280;51448;51.660;5.824;2022-12-24T02:24:31;100678.50;;;9.78;100.00
61119;BME280;51448;51.660;5.824;2022-12-24T02:27:36;100673.25;;;9.78;100.00
61119;BME280;51448;51.660;5.824;2022-12-24T02:30:09;100668.97;;;9.75;100.00
61119;BME280;51448;51.660;5.824;2022-12-24T02:35:35;100680.31;;;9.76;100.00
61119;BME280;51448;51.660;5.824;2022-12-24T02:38:13;100674.22;;;9.75;100.00
61119;BME280;51448;51.660;5.824;2022-12-24T02:40:55;100668.97;;;9.75;100.00
61119;BME280;51448;51.660;5.824;2022-12-24T02:43:32;100664.56;;;9.76;100.00
61119;BME280;51448;51.660;5.824;2022-12-24T02:46:10;100675.00;;;9.79;100.00
61119;BME280;51448;51.660;5.824;2022-12-24T02:48:43;100675.84;;;9.79;100.00
61119;BME280;51448;51.660;5.824;2022-12-24T02:51:15;100672.34;;;9.80;100.00
61119;BME280;51448;51.660;5.824;2022-12-24T02:53:43;100673.19;;;9.81;100.00
61119;BME280;51448;51.660;5.824;2022-12-24T02:56:33;100676.53;;;9.86;100.00
61119;BME280;51448;51.660;5.824;2022-12-24T03:05:57;100675.63;;;9.89;100.00
61119;BME280;51448;51.660;5.824;2022-12-24T03:08:44;100679.97;;;9.88;100.00
61119;BME280;51448;51.660;5.824;2022-12-24T03:11:21;100672.91;;;9.90;100.00
61119;BME280;51448;51.660;5.824;2022-12-24T03:13:49;100669.38;;;9.93;100.00
61119;BME280;51448;51.660;5.824;2022-12-24T03:16:22;100664.19;;;9.90;100.00
61119;BME280;51448;51.660;5.824;2022-12-24T03:18:52;100673.84;;;9.89;100.00
61119;BME280;51448;51.660;5.824;2022-12-24T03:21:26;100670.34;;;9.89;100.00
61119;BME280;51448;51.660;5.824;2022-12-24T03:23:59;100680.09;;;9.85;100.00
61119;BME280;51448;51.660;5.824;2022-12-24T03:26:28;100673.09;;;9.84;100.00
61119;BME280;51448;51.660;5.824;2022-12-24T03:28:59;100678.44;;;9.81;100.00
61119;BME280;51448;51.660;5.824;2022-12-24T03:31:48;100687.28;;;9.78;100.00
61119;BME280;51448;51.660;5.824;2022-12-24T03:34:18;100683.88;;;9.75;100.00
61119;BME280;51448;51.660;5.824;2022-12-24T03:36:46;100690.00;;;9.74;100.00
61119;BME280;51448;51.660;5.824;2022-12-24T03:39:14;100694.41;;;9.73;100.00
61119;BME280;51448;51.660;5.824;2022-12-24T03:41:42;100694.38;;;9.75;100.00
61119;BME280;51448;51.660;5.824;2022-12-24T03:44:09;100698.69;;;9.76;100.00
61119;BME280;51448;51.660;5.824;2022-12-24T03:46:37;100706.50;;;9.79;100.00
61119;BME280;51448;51.660;5.824;2022-12-24T03:49:04;100694.19;;;9.81;100.00
61119;BME280;51448;51.660;5.824;2022-12-24T03:51:32;100705.53;;;9.83;100.00
61119;BME280;51448;51.660;5.824;2022-12-24T03:54:00;100695.00;;;9.84;100.00
61119;BME280;51448;51.660;5.824;2022-12-24T03:56:27;100704.56;;;9.85;100.00
61119;BME280;51448;51.660;5.824;2022-12-24T03:58:55;100715.06;;;9.87;100.00
61119;BME280;51448;51.660;5.824;2022-12-24T04:01:22;100712.31;;;9.90;100.00
61119;BME280;51448;51.660;5.824;2022-12-24T04:03:50;100715.84;;;9.91;100.00
61119;BME280;51448;51.660;5.824;2022-12-24T04:06:17;100721.03;;;9.92;100.00
61119;BME280;51448;51.660;5.824;2022-12-24T04:08:45;100724.53;;;9.93;100.00
61119;BME280;51448;51.660;5.824;2022-12-24T04:11:14;100710.50;;;9.92;100.00
61119;BME280;51448;51.660;5.824;2022-12-24T04:13:43;100717.47;;;9.95;100.00
61119;BME280;51448;51.660;5.824;2022-12-24T04:16:14;100725.28;;;9.96;100.00
61119;BME280;51448;51.660;5.824;2022-12-24T04:18:42;100720.91;;;9.97;100.00
61119;BME280;51448;51.660;5.824;2022-12-24T04:21:10;100723.47;;;9.98;100.00
61119;BME280;51448;51.660;5.824;2022-12-24T04:23:40;100726.94;;;10.00;100.00
61119;BME280;51448;51.660;5.824;2022-12-24T04:26:10;100738.31;;;10.01;100.00
61119;BME280;51448;51.660;5.824;2022-12-24T04:28:40;100735.63;;;10.02;100.00
61119;BME280;51448;51.660;5.824;2022-12-24T04:31:11;100730.31;;;10.05;100.00
61119;BME280;51448;51.660;5.824;2022-12-24T04:33:41;100732.94;;;10.05;100.00
61119;BME280;51448;51.660;5.824;2022-12-24T04:36:12;100728.50;;;10.07;100.00
61119;BME280;51448;51.660;5.824;2022-12-24T04:38:41;100730.22;;;10.08;100.00
61119;BME280;51448;51.660;5.824;2022-12-24T04:41:16;100737.16;;;10.11;100.00
61119;BME280;51448;51.660;5.824;2022-12-24T04:43:52;100736.28;;;10.11;100.00
61119;BME280;51448;51.660;5.824;2022-12-24T04:46:26;100735.41;;;10.12;100.00
61119;BME280;51448;51.660;5.824;2022-12-24T04:48:58;100738.00;;;10.13;100.00
61119;BME280;51448;51.660;5.824;2022-12-24T04:51:27;100742.28;;;10.16;100.00
61119;BME280;51448;51.660;5.824;2022-12-24T04:53:55;100743.13;;;10.18;100.00
61119;BME280;51448;51.660;5.824;2022-12-24T04:56:27;100747.41;;;10.20;100.00
61119;BME280;51448;51.660;5.824;2022-12-24T04:58:57;100749.19;;;10.20;100.00
61119;BME280;51448;51.660;5.824;2022-12-24T05:01:31;100754.47;;;10.18;100.00
61119;BME280;51448;51.660;5.824;2022-12-24T05:04:00;100756.25;;;10.18;100.00
61119;BME280;51448;51.660;5.824;2022-12-24T05:06:30;100756.25;;;10.18;100.00
61119;BME280;51448;51.660;5.824;2022-12-24T05:08:59;100757.97;;;10.19;100.00
61119;BME280;51448;51.660;5.824;2022-12-24T05:11:27;100752.78;;;10.17;100.00
61119;BME280;51448;51.660;5.824;2022-12-24T05:13:55;100749.25;;;10.17;100.00
61119;BME280;51448;51.660;5.824;2022-12-24T05:16:22;100748.41;;;10.16;100.00
61119;BME280;51448;51.660;5.824;2022-12-24T05:18:51;100751.06;;;10.15;100.00
61119;BME280;51448;51.660;5.824;2022-12-24T05:21:25;100756.38;;;10.13;100.00
61119;BME280;51448;51.660;5.824;2022-12-24T05:23:52;100761.69;;;10.12;100.00
61119;BME280;51448;51.660;5.824;2022-12-24T05:26:48;100755.59;;;10.10;100.00
61119;BME280;51448;51.660;5.824;2022-12-24T05:29:18;100763.56;;;10.06;100.00
61119;BME280;51448;51.660;5.824;2022-12-24T05:31:45;100768.81;;;10.06;100.00
61119;BME280;51448;51.660;5.824;2022-12-24T05:34:14;100756.59;;;10.05;100.00
61119;BME280;51448;51.660;5.824;2022-12-24T05:36:43;100764.50;;;10.04;100.00
61119;BME280;51448;51.660;5.824;2022-12-24T05:39:15;100768.81;;;10.06;100.00
61119;BME280;51448;51.660;5.824;2022-12-24T05:41:44;100760.09;;;10.04;100.00
61119;BME280;51448;51.660;5.824;2022-12-24T05:44:13;100758.28;;;10.06;100.00
61119;BME280;51448;51.660;5.824;2022-12-24T05:46:43;100757.44;;;10.06;100.00
61119;BME280;51448;51.660;5.824;2022-12-24T05:49:11;100767.94;;;10.06;100.00
61119;BME280;51448;51.660;5.824;2022-12-24T05:51:38;100765.34;;;10.04;100.00
61119;BME280;51448;51.660;5.824;2022-12-24T05:54:06;100775.88;;;10.04;100.00
61119;BME280;51448;51.660;5.824;2022-12-24T05:56:34;100771.53;;;10.03;100.00
61119;BME280;51448;51.660;5.824;2022-12-24T05:59:01;100773.34;;;10.01;100.00
61119;BME280;51448;51.660;5.824;2022-12-24T06:01:29;100775.13;;;10.01;100.00
61119;BME280;51448;51.660;5.824;2022-12-24T06:03:56;100790.91;;;9.99;100.00
61119;BME280;51448;51.660;5.824;2022-12-24T06:06:26;100791.78;;;9.98;100.00
61119;BME280;51448;51.660;5.824;2022-12-24T06:08:54;100797.13;;;9.97;100.00
61119;BME280;51448;51.660;5.824;2022-12-24T06:11:26;100791.78;;;9.98;100.00
61119;BME280;51448;51.660;5.824;2022-12-24T06:13:54;100795.34;;;9.97;100.00
61119;BME280;51448;51.660;5.824;2022-12-24T06:16:23;100802.31;;;9.98;100.00
61119;BME280;51448;51.660;5.824;2022-12-24T06:18:52;100796.19;;;9.98;100.00
61119;BME280;51448;51.660;5.824;2022-12-24T06:21:20;100811.97;;;9.98;100.00
61119;BME280;51448;51.660;5.824;2022-12-24T06:23:48;100806.72;;;9.98;100.00
61119;BME280;51448;51.660;5.824;2022-12-24T06:26:18;100808.38;;;10.00;100.00
61119;BME280;51448;51.660;5.824;2022-12-24T06:28:48;100815.41;;;10.00;100.00
61119;BME280;51448;51.660;5.824;2022-12-24T06:31:18;100824.16;;;10.00;100.00
61119;BME280;51448;51.660;5.824;2022-12-24T06:33:48;100828.59;;;9.98;100.00
61119;BME280;51448;51.660;5.824;2022-12-24T06:36:19;100818.97;;;9.99;100.00
61119;BME280;51448;51.660;5.824;2022-12-24T06:38:49;100814.63;;;9.96;100.00
61119;BME280;51448;51.660;5.824;2022-12-24T06:41:18;100816.44;;;9.94;100.00
61119;BME280;51448;51.660;5.824;2022-12-24T06:43:49;100819.97;;;9.93;100.00
61119;BME280;51448;51.660;5.824;2022-12-24T06:46:19;100834.88;;;9.93;100.00
61119;BME280;51448;51.660;5.824;2022-12-24T06:48:47;100839.25;;;9.92;100.00
61119;BME280;51448;51.660;5.824;2022-12-24T06:51:16;100837.44;;;9.94;100.00
61119;BME280;51448;51.660;5.824;2022-12-24T06:53:47;100838.38;;;9.93;100.00
61119;BME280;51448;51.660;5.824;2022-12-24T06:56:18;100844.44;;;9.95;100.00
61119;BME280;51448;51.660;5.824;2022-12-24T06:58:46;100846.22;;;9.95;100.00
61119;BME280;51448;51.660;5.824;2022-12-24T07:01:15;100836.53;;;9.97;100.00
61119;BME280;51448;51.660;5.824;2022-12-24T07:03:44;100840.03;;;9.96;100.00
61119;BME280;51448;51.660;5.824;2022-12-24T07:06:32;100828.59;;;9.98;100.00
61119;BME280;51448;51.660;5.824;2022-12-24T07:09:00;100838.25;;;9.98;100.00
61119;BME280;51448;51.660;5.824;2022-12-24T07:11:27;100847.03;;;9.97;100.00
61119;BME280;51448;51.660;5.824;2022-12-24T07:13:55;100851.38;;;9.98;100.00
61119;BME280;51448;51.660;5.824;2022-12-24T07:16:22;100846.97;;;9.98;100.00
61119;BME280;51448;51.660;5.824;2022-12-24T07:18:50;100854.81;;;10.00;100.00
61119;BME280;51448;51.660;5.824;2022-12-24T07:21:18;100858.41;;;9.97;100.00
61119;BME280;51448;51.660;5.824;2022-12-24T07:23:45;100845.31;;;9.94;100.00
61119;BME280;51448;51.660;5.824;2022-12-24T07:26:13;100855.06;;;9.91;100.00
61119;BME280;51448;51.660;5.824;2022-12-24T07:28:40;100860.34;;;9.89;100.00
61119;BME280;51448;51.660;5.824;2022-12-24T07:31:08;100867.41;;;9.87;100.00
61119;BME280;51448;51.660;5.824;2022-12-24T07:33:35;100863.94;;;9.86;100.00
61119;BME280;51448;51.660;5.824;2022-12-24T07:36:05;100863.97;;;9.85;100.00
61119;BME280;51448;51.660;5.824;2022-12-24T07:38:34;100873.63;;;9.83;100.00
61119;BME280;51448;51.660;5.824;2022-12-24T07:41:04;100885.03;;;9.82;100.00
61119;BME280;51448;51.660;5.824;2022-12-24T07:43:32;100894.72;;;9.80;100.00
61119;BME280;51448;51.660;5.824;2022-12-24T07:46:00;100901.78;;;9.78;100.00
61119;BME280;51448;51.660;5.824;2022-12-24T07:48:29;100899.22;;;9.75;100.00
61119;BME280;51448;51.660;5.824;2022-12-24T07:50:58;100910.63;;;9.74;100.00
61119;BME280;51448;51.660;5.824;2022-12-24T07:53:27;100908.06;;;9.72;100.00
61119;BME280;51448;51.660;5.824;2022-12-24T07:55:56;100926.38;;;9.74;100.00
61119;BME280;51448;51.660;5.824;2022-12-24T07:58:24;100906.28;;;9.73;100.00
61119;BME280;51448;51.660;5.824;2022-12-24T08:00:57;100922.03;;;9.73;100.00
61119;BME280;51448;51.660;5.824;2022-12-24T08:03:26;100931.69;;;9.72;100.00
61119;BME280;51448;51.660;5.824;2022-12-24T08:05:54;100943.09;;;9.70;100.00
61119;BME280;51448;51.660;5.824;2022-12-24T08:08:22;100944.88;;;9.69;100.00
61119;BME280;51448;51.660;5.824;2022-12-24T08:10:49;100959.81;;;9.67;100.00
61119;BME280;51448;51.660;5.824;2022-12-24T08:13:17;100964.19;;;9.66;100.00
61119;BME280;51448;51.660;5.824;2022-12-24T08:15:45;100964.19;;;9.66;100.00
61119;BME280;51448;51.660;5.824;2022-12-24T08:18:12;100971.16;;;9.67;100.00
61119;BME280;51448;51.660;5.824;2022-12-24T08:20:40;100969.44;;;9.68;100.00
61119;BME280;51448;51.660;5.824;2022-12-24T08:23:08;100977.25;;;9.70;100.00
61119;BME280;51448;51.660;5.824;2022-12-24T08:25:36;100980.75;;;9.70;100.00
61119;BME280;51448;51.660;5.824;2022-12-24T08:28:04;100988.59;;;9.72;100.00
61119;BME280;51448;51.660;5.824;2022-12-24T08:30:32;100992.13;;;9.71;100.00
61119;BME280;51448;51.660;5.824;2022-12-24T08:33:00;100983.34;;;9.72;100.00
61119;BME280;51448;51.660;5.824;2022-12-24T08:35:28;100985.06;;;9.73;100.00
61119;BME280;51448;51.660;5.824;2022-12-24T08:37:56;100993.78;;;9.75;100.00
61119;BME280;51448;51.660;5.824;2022-12-24T08:40:24;100990.31;;;9.74;100.00
61119;BME280;51448;51.660;5.824;2022-12-24T08:42:52;100992.00;;;9.75;100.00
61119;BME280;51448;51.660;5.824;2022-12-24T08:45:19;100990.25;;;9.76;100.00
61119;BME280;51448;51.660;5.824;2022-12-24T08:47:47;100984.09;;;9.77;100.00
61119;BME280;51448;51.660;5.824;2022-12-24T08:50:15;100990.25;;;9.76;100.00
61119;BME280;51448;51.660;5.824;2022-12-24T08:52:42;100992.00;;;9.77;100.00
61119;BME280;51448;51.660;5.824;2022-12-24T08:55:10;100999.78;;;9.80;100.00
61119;BME280;51448;51.660;5.824;2022-12-24T08:57:37;101001.56;;;9.79;100.00
61119;BME280;51448;51.660;5.824;2022-12-24T09:00:06;101008.56;;;9.80;100.00
61119;BME280;51448;51.660;5.824;2022-12-24T09:02:35;101002.41;;;9.80;100.00
61119;BME280;51448;51.660;5.824;2022-12-24T09:05:03;101008.56;;;9.80;100.00
61119;BME280;51448;51.660;5.824;2022-12-24T09:07:31;101010.25;;;9.81;100.00
61119;BME280;51448;51.660;5.824;2022-12-24T09:09:59;101013.72;;;9.83;100.00
61119;BME280;51448;51.660;5.824;2022-12-24T09:12:26;101018.03;;;9.86;100.00
61119;BME280;51448;51.660;5.824;2022-12-24T09:14:54;101027.63;;;9.89;100.00
61119;BME280;51448;51.660;5.824;2022-12-24T09:17:29;101038.91;;;9.92;100.00
61119;BME280;51448;51.660;5.824;2022-12-24T09:19:56;101031.88;;;9.94;100.00
61119;BME280;51448;51.660;5.824;2022-12-24T09:22:24;101048.44;;;9.98;100.00
61119;BME280;51448;51.660;5.824;2022-12-24T09:24:55;101038.72;;;10.01;100.00
61119;BME280;51448;51.660;5.824;2022-12-24T09:27:22;101047.34;;;10.08;100.00
61119;BME280;51448;51.660;5.824;2022-12-24T09:29:50;101048.97;;;10.14;100.00
61119;BME280;51448;51.660;5.824;2022-12-24T09:32:17;101054.13;;;10.17;100.00
61119;BME280;51448;51.660;5.824;2022-12-24T09:34:45;101061.03;;;10.22;100.00
61119;BME280;51448;51.660;5.824;2022-12-24T09:37:12;101064.47;;;10.26;100.00
61119;BME280;51448;51.660;5.824;2022-12-24T09:39:40;101061.81;;;10.26;100.00
61119;BME280;51448;51.660;5.824;2022-12-24T09:42:33;101064.47;;;10.26;100.00
61119;BME280;51448;51.660;5.824;2022-12-24T09:45:28;101070.59;;;10.25;100.00
61119;BME280;51448;51.660;5.824;2022-12-24T09:48:05;101074.97;;;10.26;100.00
61119;BME280;51448;51.660;5.824;2022-12-24T09:51:21;101078.44;;;10.28;100.00
61119;BME280;51448;51.660;5.824;2022-12-24T09:54:30;101082.78;;;10.29;100.00
61119;BME280;51448;51.660;5.824;2022-12-24T09:57:27;101080.13;;;10.32;100.00
61119;BME280;51448;51.660;5.824;2022-12-24T09:59:58;101079.16;;;10.36;100.00
61119;BME280;51448;51.660;5.824;2022-12-24T10:02:26;101082.47;;;10.44;100.00
61119;BME280;51448;51.660;5.824;2022-12-24T10:04:54;101082.34;;;10.49;100.00
61119;BME280;51448;51.660;5.824;2022-12-24T10:07:41;101083.06;;;10.56;100.00
61119;BME280;51448;51.660;5.824;2022-12-24T10:13:09;101103.94;;;10.62;100.00
61119;BME280;51448;51.660;5.824;2022-12-24T10:16:09;101106.44;;;10.68;100.00
61119;BME280;51448;51.660;5.824;2022-12-24T10:19:13;101109.00;;;10.71;100.00
61119;BME280;51448;51.660;5.824;2022-12-24T10:24:45;101118.44;;;10.80;100.00
61119;BME280;51448;51.660;5.824;2022-12-24T10:27:24;101119.22;;;10.83;100.00
61119;BME280;51448;51.660;5.824;2022-12-24T10:30:01;101113.81;;;10.90;100.00
61119;BME280;51448;51.660;5.824;2022-12-24T10:32:44;101097.94;;;10.93;100.00
61119;BME280;51448;51.660;5.824;2022-12-24T10:37:43;101104.78;;;11.00;100.00
61119;BME280;51448;51.660;5.824;2022-12-24T10:40:27;101099.44;;;11.03;100.00
61119;BME280;51448;51.660;5.824;2022-12-24T10:42:56;101101.19;;;11.04;100.00
61119;BME280;51448;51.660;5.824;2022-12-24T10:45:28;101101.16;;;11.05;100.00
61119;BME280;51448;51.660;5.824;2022-12-24T10:48:08;101096.72;;;11.07;100.00
61119;BME280;51448;51.660;5.824;2022-12-24T10:50:51;101095.81;;;11.07;100.00
61119;BME280;51448;51.660;5.824;2022-12-24T10:53:43;101096.78;;;11.04;100.00
61119;BME280;51448;51.660;5.824;2022-12-24T10:56:16;101105.66;;;11.00;100.00
61119;BME280;51448;51.660;5.824;2022-12-24T10:58:51;101102.19;;;10.98;100.00
61119;BME280;51448;51.660;5.824;2022-12-24T11:01:42;101108.38;;;10.97;100.00
61119;BME280;51448;51.660;5.824;2022-12-24T11:04:15;101117.94;;;11.00;100.00
61119;BME280;51448;51.660;5.824;2022-12-24T11:07:00;101105.53;;;11.05;100.00
61119;BME280;51448;51.660;5.824;2022-12-24T11:09:38;101107.25;;;11.07;100.00
61119;BME280;51448;51.660;5.824;2022-12-24T11:12:18;101105.34;;;11.13;100.00
61119;BME280;51448;51.660;5.824;2022-12-24T11:15:00;101111.38;;;11.16;100.00
61119;BME280;51448;51.660;5.824;2022-12-24T11:17:52;101106.91;;;11.20;100.00
61119;BME280;51448;51.660;5.824;2022-12-24T11:20:24;101115.63;;;11.22;100.00
61119;BME280;51448;51.660;5.824;2022-12-24T11:22:56;101116.41;;;11.25;100.00
61119;BME280;51448;51.660;5.824;2022-12-24T11:25:29;101115.34;;;11.33;100.00
61119;BME280;51448;51.660;5.824;2022-12-24T11:28:21;101117.03;;;11.35;100.00
61119;BME280;51448;51.660;5.824;2022-12-24T11:33:25;101110.91;;;11.35;100.00
61119;BME280;51448;51.660;5.824;2022-12-24T11:35:58;101122.22;;;11.38;100.00
61119;BME280;51448;51.660;5.824;2022-12-24T11:38:31;101116.06;;;11.38;100.00
61119;BME280;51448;51.660;5.824;2022-12-24T11:41:06;101122.97;;;11.42;100.00
61119;BME280;51448;51.660;5.824;2022-12-24T11:43:43;101118.50;;;11.45;100.00
61119;BME280;51448;51.660;5.824;2022-12-24T11:46:57;101119.34;;;11.47;100.00
61119;BME280;51448;51.660;5.824;2022-12-24T11:51:40;101136.81;;;11.50;100.00
61119;BME280;51448;51.660;5.824;2022-12-24T11:54:30;101136.81;;;11.50;100.00
61119;BME280;51448;51.660;5.824;2022-12-24T11:57:07;101132.50;;;11.47;100.00
61119;BME280;51448;51.660;5.824;2022-12-24T11:59:42;101136.91;;;11.47;100.00
61119;BME280;51448;51.660;5.824;2022-12-24T12:02:26;101138.72;;;11.45;100.00
61119;BME280;51448;51.660;5.824;2022-12-24T12:05:21;101137.06;;;11.41;100.00
61119;BME280;51448;51.660;5.824;2022-12-24T12:07:58;101129.22;;;11.39;100.00
61119;BME280;51448;51.660;5.824;2022-12-24T12:10:38;101136.31;;;11.36;100.00
61119;BME280;51448;51.660;5.824;2022-12-24T12:13:15;101132.94;;;11.32;100.00
61119;BME280;51448;51.660;5.824;2022-12-24T12:16:06;101140.84;;;11.31;100.00
61119;BME280;51448;51.660;5.824;2022-12-24T12:18:48;101137.38;;;11.30;100.00
61119;BME280;51448;51.660;5.824;2022-12-24T12:21:26;101150.47;;;11.32;100.00
61119;BME280;51448;51.660;5.824;2022-12-24T12:24:12;101142.56;;;11.32;100.00
61119;BME280;51448;51.660;5.824;2022-12-24T12:26:46;101141.75;;;11.30;100.00
61119;BME280;51448;51.660;5.824;2022-12-24T12:29:33;101146.13;;;11.31;100.00
61119;BME280;51448;51.660;5.824;2022-12-24T12:32:12;101150.53;;;11.30;100.00
61119;BME280;51448;51.660;5.824;2022-12-24T12:35:22;101154.03;;;11.31;100.00
61119;BME280;51448;51.660;5.824;2022-12-24T12:38:03;101159.25;;;11.32;100.00
61119;BME280;51448;51.660;5.824;2022-12-24T12:41:11;101156.50;;;11.37;100.00
61119;BME280;51448;51.660;5.824;2022-12-24T12:50:06;101166.59;;;11.52;100.00
61119;BME280;51448;51.660;5.824;2022-12-24T12:55:51;101164.78;;;11.54;100.00
61119;BME280;51448;51.660;5.824;2022-12-24T12:58:39;101172.66;;;11.56;100.00
61119;BME280;51448;51.660;5.824;2022-12-24T13:01:15;101176.22;;;11.55;100.00
61119;BME280;51448;51.660;5.824;2022-12-24T13:10:40;101176.53;;;11.42;100.00
61119;BME280;51448;51.660;5.824;2022-12-24T13:13:44;101183.69;;;11.37;100.00
61119;BME280;51448;51.660;5.824;2022-12-24T13:16:32;101189.25;;;11.25;100.00
61119;BME280;51448;51.660;5.824;2022-12-24T13:22:12;101196.34;;;11.23;100.00
61119;BME280;51448;51.660;5.824;2022-12-24T13:24:50;101208.50;;;11.28;100.00
61119;BME280;51448;51.660;5.824;2022-12-24T13:27:24;101202.31;;;11.30;100.00
61119;BME280;51448;51.660;5.824;2022-12-24T13:32:51;101206.59;;;11.34;100.00
61119;BME280;51448;51.660;5.824;2022-12-24T13:37:47;101208.34;;;11.35;100.00
61119;BME280;51448;51.660;5.824;2022-12-24T13:40:25;101211.91;;;11.32;100.00
61119;BME280;51448;51.660;5.824;2022-12-24T13:53:32;101211.91;;;11.32;100.00
61119;BME280;51448;51.660;5.824;2022-12-24T13:56:09;101213.63;;;11.33;100.00
61119;BME280;51448;51.660;5.824;2022-12-24T13:58:52;101220.59;;;11.36;100.00
61119;BME280;51448;51.660;5.824;2022-12-24T14:01:37;101217.91;;;11.39;100.00
61119;BME280;51448;51.660;5.824;2022-12-24T14:04:09;101220.53;;;11.39;100.00
61119;BME280;51448;51.660;5.824;2022-12-24T14:06:53;101226.69;;;11.38;100.00
61119;BME280;51448;51.660;5.824;2022-12-24T14:09:26;101225.00;;;11.35;99.97
61119;BME280;51448;51.660;5.824;2022-12-24T14:14:35;101230.41;;;11.29;99.88
61119;BME280;51448;51.660;5.824;2022-12-24T14:17:21;101240.97;;;11.27;99.25
61119;BME280;51448;51.660;5.824;2022-12-24T14:19:54;101241.06;;;11.24;99.37
61119;BME280;51448;51.660;5.824;2022-12-24T14:25:20;101248.19;;;11.19;98.86